sensor_id;sensor_type;location;lat;lon;timestamp;temperature;humidity
19945;DHT22;10134;50.952;6.930;2023-04-28T00:01:52;14.50;78.60
19945;DHT22;10134;50.952;6.930;2023-04-28T00:04:19;14.50;78.90
19945;DHT22;10134;50.952;6.930;2023-04-28T00:06:47;14.50;79.00
19945;DHT22;10134;50.952;6.930;2023-04-28T00:09:14;14.50;79.20
19945;DHT22;10134;50.952;6.930;2023-04-28T00:11:44;14.40;79.30
19945;DHT22;10134;50.952;6.930;2023-04-28T00:14:12;14.50;79.40
19945;DHT22;10134;50.952;6.930;2023-04-28T00:16:39;14.50;79.40
19945;DHT22;10134;50.952;6.930;2023-04-28T00:19:07;14.50;79.90
19945;DHT22;10134;50.952;6.930;2023-04-28T00:21:35;14.50;80.10
19945;DHT22;10134;50.952;6.930;2023-04-28T00:24:02;14.50;80.10
19945;DHT22;10134;50.952;6.930;2023-04-28T00:26:30;14.40;80.50
19945;DHT22;10134;50.952;6.930;2023-04-28T00:28:57;14.50;80.80
19945;DHT22;10134;50.952;6.930;2023-04-28T00:31:24;14.50;80.90
19945;DHT22;10134;50.952;6.930;2023-04-28T00:33:54;14.50;81.20
19945;DHT22;10134;50.952;6.930;2023-04-28T00:36:25;14.40;81.60
19945;DHT22;10134;50.952;6.930;2023-04-28T00:38:53;14.40;81.70
19945;DHT22;10134;50.952;6.930;2023-04-28T00:41:20;14.40;82.20
19945;DHT22;10134;50.952;6.930;2023-04-28T00:43:48;14.40;82.80
19945;DHT22;10134;50.952;6.930;2023-04-28T00:46:21;14.40;83.00
19945;DHT22;10134;50.952;6.930;2023-04-28T00:48:49;14.40;83.60
19945;DHT22;10134;50.952;6.930;2023-04-28T00:51:17;14.40;83.70
19945;DHT22;10134;50.952;6.930;2023-04-28T00:53:44;14.40;83.60
19945;DHT22;10134;50.952;6.930;2023-04-28T00:56:12;14.40;83.50
19945;DHT22;10134;50.952;6.930;2023-04-28T00:58:40;14.40;83.70
19945;DHT22;10134;50.952;6.930;2023-04-28T01:01:09;14.40;83.90
19945;DHT22;10134;50.952;6.930;2023-04-28T01:03:38;14.40;84.70
19945;DHT22;10134;50.952;6.930;2023-04-28T01:06:08;14.40;84.00
19945;DHT22;10134;50.952;6.930;2023-04-28T01:08:37;14.40;84.30
19945;DHT22;10134;50.952;6.930;2023-04-28T01:11:09;14.40;84.40
19945;DHT22;10134;50.952;6.930;2023-04-28T01:13:56;14.40;85.00
19945;DHT22;10134;50.952;6.930;2023-04-28T01:16:27;14.30;86.40
19945;DHT22;10134;50.952;6.930;2023-04-28T01:18:55;14.30;87.30
19945;DHT22;10134;50.952;6.930;2023-04-28T01:21:31;14.20;89.20
19945;DHT22;10134;50.952;6.930;2023-04-28T01:24:07;14.30;90.10
19945;DHT22;10134;50.952;6.930;2023-04-28T01:26:34;14.10;91.30
19945;DHT22;10134;50.952;6.930;2023-04-28T01:29:02;14.10;91.40
19945;DHT22;10134;50.952;6.930;2023-04-28T01:31:30;14.10;91.90
19945;DHT22;10134;50.952;6.930;2023-04-28T01:33:57;14.10;92.80
19945;DHT22;10134;50.952;6.930;2023-04-28T01:36:25;14.00;94.00
19945;DHT22;10134;50.952;6.930;2023-04-28T01:38:54;14.00;94.60
19945;DHT22;10134;50.952;6.930;2023-04-28T01:41:22;13.90;95.40
19945;DHT22;10134;50.952;6.930;2023-04-28T01:43:49;13.90;96.60
19945;DHT22;10134;50.952;6.930;2023-04-28T01:46:17;13.90;96.70
19945;DHT22;10134;50.952;6.930;2023-04-28T01:48:45;13.90;96.40
19945;DHT22;10134;50.952;6.930;2023-04-28T01:51:12;13.90;96.50
19945;DHT22;10134;50.952;6.930;2023-04-28T01:53:40;13.90;96.60
19945;DHT22;10134;50.952;6.930;2023-04-28T01:56:08;13.90;96.80
19945;DHT22;10134;50.952;6.930;2023-04-28T01:58:35;13.90;97.30
19945;DHT22;10134;50.952;6.930;2023-04-28T02:01:04;13.80;98.50
19945;DHT22;10134;50.952;6.930;2023-04-28T02:03:32;13.80;98.80
19945;DHT22;10134;50.952;6.930;2023-04-28T02:06:02;13.70;99.20
19945;DHT22;10134;50.952;6.930;2023-04-28T02:08:30;13.70;99.50
19945;DHT22;10134;50.952;6.930;2023-04-28T02:10:57;13.70;99.90
19945;DHT22;10134;50.952;6.930;2023-04-28T02:13:25;13.60;99.90
19945;DHT22;10134;50.952;6.930;2023-04-28T02:15:52;13.60;99.90
19945;DHT22;10134;50.952;6.930;2023-04-28T02:18:20;13.60;99.90
19945;DHT22;10134;50.952;6.930;2023-04-28T02:20:48;13.60;99.90
19945;DHT22;10134;50.952;6.930;2023-04-28T02:23:15;13.50;99.90
19945;DHT22;10134;50.952;6.930;2023-04-28T02:25:42;13.40;99.90
19945;DHT22;10134;50.952;6.930;2023-04-28T02:28:12;13.40;99.90
19945;DHT22;10134;50.952;6.930;2023-04-28T02:30:40;13.50;99.90
19945;DHT22;10134;50.952;6.930;2023-04-28T02:33:07;13.50;99.90
19945;DHT22;10134;50.952;6.930;2023-04-28T02:35:34;13.50;99.90
19945;DHT22;10134;50.952;6.930;2023-04-28T02:38:02;13.40;99.90
19945;DHT22;10134;50.952;6.930;2023-04-28T02:40:29;13.40;99.90
19945;DHT22;10134;50.952;6.930;2023-04-28T02:42:57;13.40;99.90
19945;DHT22;10134;50.952;6.930;2023-04-28T02:45:24;13.40;99.90
19945;DHT22;10134;50.952;6.930;2023-04-28T02:47:51;13.40;99.90
19945;DHT22;10134;50.952;6.930;2023-04-28T02:50:19;13.40;99.90
19945;DHT22;10134;50.952;6.930;2023-04-28T02:52:46;13.50;99.90
19945;DHT22;10134;50.952;6.930;2023-04-28T02:55:15;13.40;99.90
19945;DHT22;10134;50.952;6.930;2023-04-28T02:57:50;13.40;99.90
19945;DHT22;10134;50.952;6.930;2023-04-28T03:00:18;13.30;99.90
19945;DHT22;10134;50.952;6.930;2023-04-28T03:02:47;13.40;99.90
19945;DHT22;10134;50.952;6.930;2023-04-28T03:05:15;13.40;99.90
19945;DHT22;10134;50.952;6.930;2023-04-28T03:07:42;13.40;99.90
19945;DHT22;10134;50.952;6.930;2023-04-28T03:10:10;13.40;99.90
19945;DHT22;10134;50.952;6.930;2023-04-28T03:12:37;13.40;99.90
19945;DHT22;10134;50.952;6.930;2023-04-28T03:15:05;13.40;99.90
19945;DHT22;10134;50.952;6.930;2023-04-28T03:17:36;13.40;99.90
19945;DHT22;10134;50.952;6.930;2023-04-28T03:20:05;13.30;99.90
19945;DHT22;10134;50.952;6.930;2023-04-28T03:22:33;13.30;99.90
19945;DHT22;10134;50.952;6.930;2023-04-28T03:25:01;13.30;99.90
19945;DHT22;10134;50.952;6.930;2023-04-28T03:27:32;13.40;99.90
19945;DHT22;10134;50.952;6.930;2023-04-28T03:30:02;13.40;99.90
19945;DHT22;10134;50.952;6.930;2023-04-28T03:32:30;13.30;99.90
19945;DHT22;10134;50.952;6.930;2023-04-28T03:34:57;13.20;99.90
19945;DHT22;10134;50.952;6.930;2023-04-28T03:37:24;13.20;99.90
19945;DHT22;10134;50.952;6.930;2023-04-28T03:39:52;13.20;99.90
19945;DHT22;10134;50.952;6.930;2023-04-28T03:42:19;13.20;99.90
19945;DHT22;10134;50.952;6.930;2023-04-28T03:45:19;13.20;99.90
19945;DHT22;10134;50.952;6.930;2023-04-28T03:47:46;13.10;99.90
19945;DHT22;10134;50.952;6.930;2023-04-28T03:50:14;13.20;99.90
19945;DHT22;10134;50.952;6.930;2023-04-28T03:52:41;13.20;99.90
19945;DHT22;10134;50.952;6.930;2023-04-28T03:55:09;13.20;99.90
19945;DHT22;10134;50.952;6.930;2023-04-28T03:57:36;13.10;99.90
19945;DHT22;10134;50.952;6.930;2023-04-28T04:00:04;13.00;99.90
19945;DHT22;10134;50.952;6.930;2023-04-28T04:02:41;12.90;99.90
19945;DHT22;10134;50.952;6.930;2023-04-28T04:05:09;13.00;99.90
19945;DHT22;10134;50.952;6.930;2023-04-28T04:07:36;13.00;99.90
19945;DHT22;10134;50.952;6.930;2023-04-28T04:10:05;12.90;99.90
19945;DHT22;10134;50.952;6.930;2023-04-28T04:12:34;12.90;99.90
19945;DHT22;10134;50.952;6.930;2023-04-28T04:15:01;12.90;99.90
19945;DHT22;10134;50.952;6.930;2023-04-28T04:17:30;12.90;99.90
19945;DHT22;10134;50.952;6.930;2023-04-28T04:19:57;12.90;99.90
19945;DHT22;10134;50.952;6.930;2023-04-28T04:22:26;12.80;99.90
19945;DHT22;10134;50.952;6.930;2023-04-28T04:24:53;12.80;99.90
19945;DHT22;10134;50.952;6.930;2023-04-28T04:27:21;12.80;99.90
19945;DHT22;10134;50.952;6.930;2023-04-28T04:29:48;12.80;99.90
19945;DHT22;10134;50.952;6.930;2023-04-28T04:32:16;12.80;99.90
19945;DHT22;10134;50.952;6.930;2023-04-28T04:34:43;12.80;99.90
19945;DHT22;10134;50.952;6.930;2023-04-28T04:37:11;12.70;99.90
19945;DHT22;10134;50.952;6.930;2023-04-28T04:39:45;12.70;99.90
19945;DHT22;10134;50.952;6.930;2023-04-28T04:42:14;12.70;99.90
19945;DHT22;10134;50.952;6.930;2023-04-28T04:45:02;12.70;99.90
19945;DHT22;10134;50.952;6.930;2023-04-28T04:47:30;12.70;99.90
19945;DHT22;10134;50.952;6.930;2023-04-28T04:49:58;12.80;99.90
19945;DHT22;10134;50.952;6.930;2023-04-28T04:52:28;12.80;99.90
19945;DHT22;10134;50.952;6.930;2023-04-28T04:54:59;12.80;99.90
19945;DHT22;10134;50.952;6.930;2023-04-28T04:57:27;12.80;99.90
19945;DHT22;10134;50.952;6.930;2023-04-28T05:00:06;12.80;99.90
19945;DHT22;10134;50.952;6.930;2023-04-28T05:02:35;12.80;99.90
19945;DHT22;10134;50.952;6.930;2023-04-28T05:05:05;12.80;99.90
19945;DHT22;10134;50.952;6.930;2023-04-28T05:07:51;12.90;99.90
19945;DHT22;10134;50.952;6.930;2023-04-28T05:10:20;12.80;99.90
19945;DHT22;10134;50.952;6.930;2023-04-28T05:12:47;12.80;99.90
19945;DHT22;10134;50.952;6.930;2023-04-28T05:15:17;12.80;99.90
19945;DHT22;10134;50.952;6.930;2023-04-28T05:17:59;12.90;99.90
19945;DHT22;10134;50.952;6.930;2023-04-28T05:20:27;12.90;99.90
19945;DHT22;10134;50.952;6.930;2023-04-28T05:22:54;13.00;99.90
19945;DHT22;10134;50.952;6.930;2023-04-28T05:25:22;13.00;99.90
19945;DHT22;10134;50.952;6.930;2023-04-28T05:27:49;12.90;99.90
19945;DHT22;10134;50.952;6.930;2023-04-28T05:30:16;13.00;99.90
19945;DHT22;10134;50.952;6.930;2023-04-28T05:32:44;13.00;99.90
19945;DHT22;10134;50.952;6.930;2023-04-28T05:35:12;13.00;99.90
19945;DHT22;10134;50.952;6.930;2023-04-28T05:37:39;13.00;99.90
19945;DHT22;10134;50.952;6.930;2023-04-28T05:40:09;13.00;99.90
19945;DHT22;10134;50.952;6.930;2023-04-28T05:42:37;13.00;99.90
19945;DHT22;10134;50.952;6.930;2023-04-28T05:45:05;13.00;99.90
19945;DHT22;10134;50.952;6.930;2023-04-28T05:47:33;13.00;99.90
19945;DHT22;10134;50.952;6.930;2023-04-28T05:50:00;13.10;99.90
19945;DHT22;10134;50.952;6.930;2023-04-28T05:52:27;13.10;99.90
19945;DHT22;10134;50.952;6.930;2023-04-28T05:54:55;13.00;99.90
19945;DHT22;10134;50.952;6.930;2023-04-28T05:57:22;13.00;99.90
19945;DHT22;10134;50.952;6.930;2023-04-28T05:59:49;13.00;99.90
19945;DHT22;10134;50.952;6.930;2023-04-28T06:02:17;13.10;99.90
19945;DHT22;10134;50.952;6.930;2023-04-28T06:04:48;13.10;99.90
19945;DHT22;10134;50.952;6.930;2023-04-28T06:07:15;13.10;99.90
19945;DHT22;10134;50.952;6.930;2023-04-28T06:09:43;13.10;99.90
19945;DHT22;10134;50.952;6.930;2023-04-28T06:12:11;13.10;99.90
19945;DHT22;10134;50.952;6.930;2023-04-28T06:14:39;13.20;99.90
19945;DHT22;10134;50.952;6.930;2023-04-28T06:17:07;13.20;99.90
19945;DHT22;10134;50.952;6.930;2023-04-28T06:19:34;13.20;99.90
19945;DHT22;10134;50.952;6.930;2023-04-28T06:22:02;13.10;99.90
19945;DHT22;10134;50.952;6.930;2023-04-28T06:24:29;13.10;99.90
19945;DHT22;10134;50.952;6.930;2023-04-28T06:26:58;13.10;99.90
19945;DHT22;10134;50.952;6.930;2023-04-28T06:29:26;13.20;99.90
19945;DHT22;10134;50.952;6.930;2023-04-28T06:31:53;13.20;99.90
19945;DHT22;10134;50.952;6.930;2023-04-28T06:34:25;13.20;99.90
19945;DHT22;10134;50.952;6.930;2023-04-28T06:37:00;13.20;99.90
19945;DHT22;10134;50.952;6.930;2023-04-28T06:39:27;13.20;99.90
19945;DHT22;10134;50.952;6.930;2023-04-28T06:41:54;13.30;99.90
19945;DHT22;10134;50.952;6.930;2023-04-28T06:44:25;13.30;99.90
19945;DHT22;10134;50.952;6.930;2023-04-28T06:46:52;13.40;99.90
19945;DHT22;10134;50.952;6.930;2023-04-28T06:49:19;13.40;99.90
19945;DHT22;10134;50.952;6.930;2023-04-28T06:51:47;13.40;99.90
19945;DHT22;10134;50.952;6.930;2023-04-28T06:54:14;13.40;99.90
19945;DHT22;10134;50.952;6.930;2023-04-28T06:56:43;13.50;99.90
19945;DHT22;10134;50.952;6.930;2023-04-28T06:59:10;13.50;99.90
19945;DHT22;10134;50.952;6.930;2023-04-28T07:01:38;13.60;99.90
19945;DHT22;10134;50.952;6.930;2023-04-28T07:04:05;13.70;99.90
19945;DHT22;10134;50.952;6.930;2023-04-28T07:06:33;13.70;99.90
19945;DHT22;10134;50.952;6.930;2023-04-28T07:09:00;13.70;99.90
19945;DHT22;10134;50.952;6.930;2023-04-28T07:11:28;13.80;99.90
19945;DHT22;10134;50.952;6.930;2023-04-28T07:13:55;13.80;99.90
19945;DHT22;10134;50.952;6.930;2023-04-28T07:16:22;13.80;99.90
19945;DHT22;10134;50.952;6.930;2023-04-28T07:18:49;13.80;99.90
19945;DHT22;10134;50.952;6.930;2023-04-28T07:21:17;13.80;99.90
19945;DHT22;10134;50.952;6.930;2023-04-28T07:23:44;13.80;99.90
19945;DHT22;10134;50.952;6.930;2023-04-28T07:26:12;13.80;99.90
19945;DHT22;10134;50.952;6.930;2023-04-28T07:28:43;13.80;99.90
19945;DHT22;10134;50.952;6.930;2023-04-28T07:31:10;13.80;99.90
19945;DHT22;10134;50.952;6.930;2023-04-28T07:33:38;13.80;99.90
19945;DHT22;10134;50.952;6.930;2023-04-28T07:36:05;13.70;99.90
19945;DHT22;10134;50.952;6.930;2023-04-28T07:38:33;13.80;99.90
19945;DHT22;10134;50.952;6.930;2023-04-28T07:41:02;13.80;99.90
19945;DHT22;10134;50.952;6.930;2023-04-28T07:43:30;13.90;99.90
19945;DHT22;10134;50.952;6.930;2023-04-28T07:45:58;13.90;99.90
19945;DHT22;10134;50.952;6.930;2023-04-28T07:48:25;14.00;99.90
19945;DHT22;10134;50.952;6.930;2023-04-28T07:50:53;14.10;99.90
19945;DHT22;10134;50.952;6.930;2023-04-28T07:53:20;14.20;99.90
19945;DHT22;10134;50.952;6.930;2023-04-28T07:55:48;14.20;99.90
19945;DHT22;10134;50.952;6.930;2023-04-28T07:58:15;14.30;99.90
19945;DHT22;10134;50.952;6.930;2023-04-28T08:00:43;14.40;99.90
19945;DHT22;10134;50.952;6.930;2023-04-28T08:03:10;14.40;99.90
19945;DHT22;10134;50.952;6.930;2023-04-28T08:05:38;14.50;99.90
19945;DHT22;10134;50.952;6.930;2023-04-28T08:08:06;14.60;99.90
19945;DHT22;10134;50.952;6.930;2023-04-28T08:10:33;14.70;99.90
19945;DHT22;10134;50.952;6.930;2023-04-28T08:13:01;14.70;99.90
19945;DHT22;10134;50.952;6.930;2023-04-28T08:15:29;14.80;99.90
19945;DHT22;10134;50.952;6.930;2023-04-28T08:17:56;14.90;99.90
19945;DHT22;10134;50.952;6.930;2023-04-28T08:20:24;15.10;99.90
19945;DHT22;10134;50.952;6.930;2023-04-28T08:22:51;15.20;99.90
19945;DHT22;10134;50.952;6.930;2023-04-28T08:25:19;15.20;99.90
19945;DHT22;10134;50.952;6.930;2023-04-28T08:27:46;15.30;99.90
19945;DHT22;10134;50.952;6.930;2023-04-28T08:30:14;15.30;99.90
19945;DHT22;10134;50.952;6.930;2023-04-28T08:32:41;15.30;99.90
19945;DHT22;10134;50.952;6.930;2023-04-28T08:35:09;15.30;99.90
19945;DHT22;10134;50.952;6.930;2023-04-28T08:37:36;15.40;99.90
19945;DHT22;10134;50.952;6.930;2023-04-28T08:40:04;15.40;99.90
19945;DHT22;10134;50.952;6.930;2023-04-28T08:42:36;15.40;99.90
19945;DHT22;10134;50.952;6.930;2023-04-28T08:45:04;15.50;99.90
19945;DHT22;10134;50.952;6.930;2023-04-28T08:47:37;15.50;99.90
19945;DHT22;10134;50.952;6.930;2023-04-28T08:50:07;15.50;99.90
19945;DHT22;10134;50.952;6.930;2023-04-28T08:52:35;15.60;99.90
19945;DHT22;10134;50.952;6.930;2023-04-28T08:55:07;15.60;99.90
19945;DHT22;10134;50.952;6.930;2023-04-28T08:57:43;15.60;99.90
19945;DHT22;10134;50.952;6.930;2023-04-28T09:00:11;15.70;99.90
19945;DHT22;10134;50.952;6.930;2023-04-28T09:02:39;15.80;99.90
19945;DHT22;10134;50.952;6.930;2023-04-28T09:05:10;15.80;99.90
19945;DHT22;10134;50.952;6.930;2023-04-28T09:07:39;15.90;99.90
19945;DHT22;10134;50.952;6.930;2023-04-28T09:10:21;15.90;99.90
19945;DHT22;10134;50.952;6.930;2023-04-28T09:12:52;15.80;99.90
19945;DHT22;10134;50.952;6.930;2023-04-28T09:15:32;15.80;99.90
19945;DHT22;10134;50.952;6.930;2023-04-28T09:18:04;15.80;99.90
19945;DHT22;10134;50.952;6.930;2023-04-28T09:20:34;15.80;99.90
19945;DHT22;10134;50.952;6.930;2023-04-28T09:23:16;15.80;99.90
19945;DHT22;10134;50.952;6.930;2023-04-28T09:26:04;15.80;99.90
19945;DHT22;10134;50.952;6.930;2023-04-28T09:28:34;15.70;99.90
19945;DHT22;10134;50.952;6.930;2023-04-28T09:31:02;15.70;99.90
19945;DHT22;10134;50.952;6.930;2023-04-28T09:33:30;15.70;99.90
19945;DHT22;10134;50.952;6.930;2023-04-28T09:35:57;15.70;99.90
19945;DHT22;10134;50.952;6.930;2023-04-28T09:38:25;15.70;99.90
19945;DHT22;10134;50.952;6.930;2023-04-28T09:40:54;15.70;99.90
19945;DHT22;10134;50.952;6.930;2023-04-28T09:43:27;15.80;99.90
19945;DHT22;10134;50.952;6.930;2023-04-28T09:45:56;15.80;99.90
19945;DHT22;10134;50.952;6.930;2023-04-28T09:48:37;15.80;99.90
19945;DHT22;10134;50.952;6.930;2023-04-28T09:51:06;15.80;99.90
19945;DHT22;10134;50.952;6.930;2023-04-28T09:53:34;15.80;99.90
19945;DHT22;10134;50.952;6.930;2023-04-28T09:56:04;15.80;99.90
19945;DHT22;10134;50.952;6.930;2023-04-28T09:58:33;15.80;99.90
19945;DHT22;10134;50.952;6.930;2023-04-28T10:01:01;15.80;99.90
19945;DHT22;10134;50.952;6.930;2023-04-28T10:03:29;15.80;99.90
19945;DHT22;10134;50.952;6.930;2023-04-28T10:05:58;15.80;99.90
19945;DHT22;10134;50.952;6.930;2023-04-28T10:08:25;15.90;99.90
19945;DHT22;10134;50.952;6.930;2023-04-28T10:10:54;15.90;99.90
19945;DHT22;10134;50.952;6.930;2023-04-28T10:13:23;16.00;99.90
19945;DHT22;10134;50.952;6.930;2023-04-28T10:15:51;16.00;99.90
19945;DHT22;10134;50.952;6.930;2023-04-28T10:18:22;16.10;99.90
19945;DHT22;10134;50.952;6.930;2023-04-28T10:20:57;16.10;99.90
19945;DHT22;10134;50.952;6.930;2023-04-28T10:23:45;16.10;99.90
19945;DHT22;10134;50.952;6.930;2023-04-28T10:26:15;16.20;99.90
19945;DHT22;10134;50.952;6.930;2023-04-28T10:28:50;16.30;99.90
19945;DHT22;10134;50.952;6.930;2023-04-28T10:31:19;16.50;99.90
19945;DHT22;10134;50.952;6.930;2023-04-28T10:33:49;16.60;99.90
19945;DHT22;10134;50.952;6.930;2023-04-28T10:36:45;16.60;99.90
19945;DHT22;10134;50.952;6.930;2023-04-28T10:39:13;16.70;99.90
19945;DHT22;10134;50.952;6.930;2023-04-28T10:41:41;16.70;99.90
19945;DHT22;10134;50.952;6.930;2023-04-28T10:47:05;16.70;99.90
19945;DHT22;10134;50.952;6.930;2023-04-28T10:55:30;17.00;99.90
19945;DHT22;10134;50.952;6.930;2023-04-28T11:00:53;17.20;99.90
19945;DHT22;10134;50.952;6.930;2023-04-28T11:06:22;17.30;99.90
19945;DHT22;10134;50.952;6.930;2023-04-28T11:11:32;17.30;99.90
19945;DHT22;10134;50.952;6.930;2023-04-28T11:19:32;17.70;99.90
19945;DHT22;10134;50.952;6.930;2023-04-28T11:22:01;17.80;99.90
19945;DHT22;10134;50.952;6.930;2023-04-28T11:24:29;17.90;99.90
19945;DHT22;10134;50.952;6.930;2023-04-28T11:26:58;18.00;99.90
19945;DHT22;10134;50.952;6.930;2023-04-28T11:29:36;18.00;99.90
19945;DHT22;10134;50.952;6.930;2023-04-28T11:32:05;18.10;99.90
19945;DHT22;10134;50.952;6.930;2023-04-28T11:34:34;18.20;99.90
19945;DHT22;10134;50.952;6.930;2023-04-28T11:37:02;18.20;99.90
19945;DHT22;10134;50.952;6.930;2023-04-28T11:39:31;18.10;99.90
19945;DHT22;10134;50.952;6.930;2023-04-28T11:42:00;18.00;99.90
19945;DHT22;10134;50.952;6.930;2023-04-28T11:44:29;18.00;99.90
19945;DHT22;10134;50.952;6.930;2023-04-28T11:46:59;18.00;99.90
19945;DHT22;10134;50.952;6.930;2023-04-28T11:49:44;18.00;99.90
19945;DHT22;10134;50.952;6.930;2023-04-28T11:52:12;18.00;99.90
19945;DHT22;10134;50.952;6.930;2023-04-28T11:54:40;18.10;99.90
19945;DHT22;10134;50.952;6.930;2023-04-28T11:57:17;18.20;99.90
19945;DHT22;10134;50.952;6.930;2023-04-28T11:59:44;18.30;99.90
19945;DHT22;10134;50.952;6.930;2023-04-28T12:02:12;18.40;99.90
19945;DHT22;10134;50.952;6.930;2023-04-28T12:04:41;18.60;99.90
19945;DHT22;10134;50.952;6.930;2023-04-28T12:07:12;18.70;99.90
19945;DHT22;10134;50.952;6.930;2023-04-28T12:09:47;18.80;99.90
19945;DHT22;10134;50.952;6.930;2023-04-28T12:12:27;18.90;99.90
19945;DHT22;10134;50.952;6.930;2023-04-28T12:15:15;19.10;99.90
19945;DHT22;10134;50.952;6.930;2023-04-28T12:17:46;19.20;99.90
19945;DHT22;10134;50.952;6.930;2023-04-28T12:20:33;19.20;99.90
19945;DHT22;10134;50.952;6.930;2023-04-28T12:23:01;19.20;99.90
19945;DHT22;10134;50.952;6.930;2023-04-28T12:25:29;19.30;99.90
19945;DHT22;10134;50.952;6.930;2023-04-28T12:28:04;19.40;99.90
19945;DHT22;10134;50.952;6.930;2023-04-28T12:30:35;19.50;99.90
19945;DHT22;10134;50.952;6.930;2023-04-28T12:33:05;19.60;99.90
19945;DHT22;10134;50.952;6.930;2023-04-28T12:35:32;19.70;99.90
19945;DHT22;10134;50.952;6.930;2023-04-28T12:37:59;19.80;99.90
19945;DHT22;10134;50.952;6.930;2023-04-28T12:40:27;19.90;99.90
19945;DHT22;10134;50.952;6.930;2023-04-28T12:42:54;20.00;99.90
19945;DHT22;10134;50.952;6.930;2023-04-28T12:45:23;20.10;99.90
19945;DHT22;10134;50.952;6.930;2023-04-28T12:47:51;20.10;99.90
19945;DHT22;10134;50.952;6.930;2023-04-28T12:50:19;20.20;99.90
19945;DHT22;10134;50.952;6.930;2023-04-28T12:52:46;20.20;99.90
19945;DHT22;10134;50.952;6.930;2023-04-28T12:55:13;20.30;99.90
19945;DHT22;10134;50.952;6.930;2023-04-28T12:57:41;20.40;99.90
19945;DHT22;10134;50.952;6.930;2023-04-28T13:00:08;20.50;99.90
19945;DHT22;10134;50.952;6.930;2023-04-28T13:02:36;20.50;99.90
19945;DHT22;10134;50.952;6.930;2023-04-28T13:05:04;20.50;99.90
19945;DHT22;10134;50.952;6.930;2023-04-28T13:07:33;20.50;99.90
19945;DHT22;10134;50.952;6.930;2023-04-28T13:10:00;20.60;99.90
19945;DHT22;10134;50.952;6.930;2023-04-28T13:12:27;20.80;99.90
19945;DHT22;10134;50.952;6.930;2023-04-28T13:14:55;20.90;99.90
19945;DHT22;10134;50.952;6.930;2023-04-28T13:17:22;20.90;99.90
19945;DHT22;10134;50.952;6.930;2023-04-28T13:19:49;21.00;99.90
19945;DHT22;10134;50.952;6.930;2023-04-28T13:22:16;21.20;99.90
19945;DHT22;10134;50.952;6.930;2023-04-28T13:24:44;21.30;99.90
19945;DHT22;10134;50.952;6.930;2023-04-28T13:27:12;21.30;99.90
19945;DHT22;10134;50.952;6.930;2023-04-28T13:29:39;21.20;99.90
19945;DHT22;10134;50.952;6.930;2023-04-28T13:32:07;21.00;99.90
19945;DHT22;10134;50.952;6.930;2023-04-28T13:34:35;21.00;99.90
19945;DHT22;10134;50.952;6.930;2023-04-28T13:37:04;21.00;99.90
19945;DHT22;10134;50.952;6.930;2023-04-28T13:39:31;21.10;99.90
19945;DHT22;10134;50.952;6.930;2023-04-28T13:41:58;21.40;99.90
19945;DHT22;10134;50.952;6.930;2023-04-28T13:44:26;21.80;99.90
19945;DHT22;10134;50.952;6.930;2023-04-28T13:46:53;22.00;99.90
19945;DHT22;10134;50.952;6.930;2023-04-28T13:49:20;22.30;99.90
19945;DHT22;10134;50.952;6.930;2023-04-28T13:51:49;22.80;99.90
19945;DHT22;10134;50.952;6.930;2023-04-28T13:54:17;23.10;99.90
19945;DHT22;10134;50.952;6.930;2023-04-28T13:56:44;23.20;99.90
19945;DHT22;10134;50.952;6.930;2023-04-28T13:59:12;23.10;99.90
19945;DHT22;10134;50.952;6.930;2023-04-28T14:01:39;23.10;99.90
19945;DHT22;10134;50.952;6.930;2023-04-28T14:04:07;23.20;99.90
19945;DHT22;10134;50.952;6.930;2023-04-28T14:06:34;23.40;99.90
19945;DHT22;10134;50.952;6.930;2023-04-28T14:09:03;23.70;99.90
19945;DHT22;10134;50.952;6.930;2023-04-28T14:11:30;24.00;99.90
19945;DHT22;10134;50.952;6.930;2023-04-28T14:13:58;24.40;99.90
19945;DHT22;10134;50.952;6.930;2023-04-28T14:16:25;24.70;99.90
19945;DHT22;10134;50.952;6.930;2023-04-28T14:18:53;24.80;99.90
19945;DHT22;10134;50.952;6.930;2023-04-28T14:21:21;24.70;99.70
19945;DHT22;10134;50.952;6.930;2023-04-28T14:23:48;24.40;98.10
19945;DHT22;10134;50.952;6.930;2023-04-28T14:26:16;24.10;97.70
19945;DHT22;10134;50.952;6.930;2023-04-28T14:28:43;23.90;98.00
19945;DHT22;10134;50.952;6.930;2023-04-28T14:31:11;24.10;98.60
19945;DHT22;10134;50.952;6.930;2023-04-28T14:33:38;25.00;97.30
19945;DHT22;10134;50.952;6.930;2023-04-28T14:36:06;26.20;94.40
19945;DHT22;10134;50.952;6.930;2023-04-28T14:38:33;27.40;92.10
19945;DHT22;10134;50.952;6.930;2023-04-28T14:41:00;28.70;87.60
19945;DHT22;10134;50.952;6.930;2023-04-28T14:43:28;29.50;82.40
19945;DHT22;10134;50.952;6.930;2023-04-28T14:45:55;29.30;78.20
19945;DHT22;10134;50.952;6.930;2023-04-28T14:48:22;28.70;77.10
19945;DHT22;10134;50.952;6.930;2023-04-28T14:50:50;27.80;78.10
19945;DHT22;10134;50.952;6.930;2023-04-28T14:53:17;27.50;80.40
19945;DHT22;10134;50.952;6.930;2023-04-28T14:55:45;28.10;80.60
19945;DHT22;10134;50.952;6.930;2023-04-28T14:58:12;28.70;77.20
19945;DHT22;10134;50.952;6.930;2023-04-28T15:00:39;29.20;75.00
19945;DHT22;10134;50.952;6.930;2023-04-28T15:03:07;29.80;74.00
19945;DHT22;10134;50.952;6.930;2023-04-28T15:05:37;29.80;72.10
19945;DHT22;10134;50.952;6.930;2023-04-28T15:08:05;30.00;72.70
19945;DHT22;10134;50.952;6.930;2023-04-28T15:10:37;29.80;72.40
19945;DHT22;10134;50.952;6.930;2023-04-28T15:13:06;29.50;72.20
19945;DHT22;10134;50.952;6.930;2023-04-28T15:15:33;28.90;73.00
19945;DHT22;10134;50.952;6.930;2023-04-28T15:18:02;29.30;73.90
19945;DHT22;10134;50.952;6.930;2023-04-28T15:20:31;29.20;72.80
19945;DHT22;10134;50.952;6.930;2023-04-28T15:23:03;29.10;72.70
19945;DHT22;10134;50.952;6.930;2023-04-28T15:25:30;28.50;72.50
19945;DHT22;10134;50.952;6.930;2023-04-28T15:27:57;28.00;73.90
19945;DHT22;10134;50.952;6.930;2023-04-28T15:30:24;27.60;75.40
19945;DHT22;10134;50.952;6.930;2023-04-28T15:32:52;27.80;76.40
19945;DHT22;10134;50.952;6.930;2023-04-28T15:35:19;28.30;75.10
19945;DHT22;10134;50.952;6.930;2023-04-28T15:37:49;29.30;73.20
19945;DHT22;10134;50.952;6.930;2023-04-28T15:40:18;30.40;70.10
19945;DHT22;10134;50.952;6.930;2023-04-28T15:42:47;31.10;67.00
19945;DHT22;10134;50.952;6.930;2023-04-28T15:45:15;31.30;66.30
19945;DHT22;10134;50.952;6.930;2023-04-28T15:47:44;31.80;65.90
19945;DHT22;10134;50.952;6.930;2023-04-28T15:50:13;31.90;65.00
19945;DHT22;10134;50.952;6.930;2023-04-28T15:52:43;31.40;64.70
19945;DHT22;10134;50.952;6.930;2023-04-28T15:55:13;31.20;65.50
19945;DHT22;10134;50.952;6.930;2023-04-28T15:57:42;30.40;65.80
19945;DHT22;10134;50.952;6.930;2023-04-28T16:00:10;30.00;66.80
19945;DHT22;10134;50.952;6.930;2023-04-28T16:02:37;29.40;67.60
19945;DHT22;10134;50.952;6.930;2023-04-28T16:05:06;28.50;68.70